createdAt,value
2018-05-10T00:01:43.702Z,15.50
2018-05-10T00:04:11.386Z,15.40
2018-05-10T00:06:38.910Z,15.30
2018-05-10T00:09:07.261Z,15.20
2018-05-10T00:11:34.850Z,15.00
2018-05-10T00:14:03.211Z,15.30
2018-05-10T00:16:30.745Z,15.30
2018-05-10T00:18:58.329Z,15.20
2018-05-10T00:21:25.969Z,15.30
2018-05-10T00:23:53.513Z,15.30
2018-05-10T00:26:21.183Z,15.40
2018-05-10T00:28:48.746Z,15.30
2018-05-10T00:31:16.365Z,15.30
2018-05-10T00:33:43.922Z,15.30
2018-05-10T00:36:11.610Z,15.30
2018-05-10T00:38:39.244Z,15.30
2018-05-10T00:41:07.555Z,15.30
2018-05-10T00:43:35.149Z,15.30
2018-05-10T00:46:02.856Z,15.30
2018-05-10T00:48:30.520Z,15.30
2018-05-10T00:50:58.071Z,15.20
2018-05-10T00:53:26.403Z,15.20
2018-05-10T00:55:53.991Z,15.20
2018-05-10T00:58:21.544Z,15.20
2018-05-10T01:00:49.988Z,15.20
2018-05-10T01:03:17.542Z,15.10
2018-05-10T01:05:45.127Z,15.20
2018-05-10T01:08:12.729Z,15.10
2018-05-10T01:10:40.329Z,15.10
2018-05-10T01:13:07.957Z,15.10
2018-05-10T01:15:36.268Z,15.00
2018-05-10T01:18:03.842Z,14.80
2018-05-10T01:20:31.435Z,15.00
2018-05-10T01:22:59.781Z,14.90
2018-05-10T01:25:27.355Z,14.80
2018-05-10T01:27:54.906Z,14.90
2018-05-10T01:30:22.497Z,14.90
2018-05-10T01:32:50.118Z,14.80
2018-05-10T01:35:29.384Z,14.70
2018-05-10T01:37:56.973Z,14.70
2018-05-10T01:40:24.513Z,14.70
2018-05-10T01:42:52.907Z,14.70
2018-05-10T01:45:21.226Z,14.70
2018-05-10T01:47:48.880Z,14.70
2018-05-10T01:50:16.515Z,14.60
2018-05-10T01:52:45.217Z,14.50
2018-05-10T01:55:12.843Z,14.50
2018-05-10T01:57:40.417Z,14.60
2018-05-10T02:00:08.028Z,14.50
2018-05-10T02:02:35.575Z,14.50
2018-05-10T02:05:03.267Z,14.50
2018-05-10T02:07:30.829Z,14.50
2018-05-10T02:09:58.400Z,14.30
2018-05-10T02:12:25.993Z,14.50
2018-05-10T02:14:53.660Z,14.60
2018-05-10T02:17:21.246Z,14.60
2018-05-10T02:19:48.805Z,14.60
2018-05-10T02:22:16.360Z,14.60
2018-05-10T02:24:44.024Z,14.60
2018-05-10T02:27:11.632Z,14.60
2018-05-10T02:29:39.978Z,14.60
2018-05-10T02:32:07.553Z,14.60
2018-05-10T02:34:36.677Z,14.60
2018-05-10T02:37:05.079Z,14.50
2018-05-10T02:39:32.644Z,14.50
2018-05-10T02:42:00.323Z,14.50
2018-05-10T02:44:27.862Z,14.50
2018-05-10T02:46:55.460Z,14.40
2018-05-10T02:49:23.061Z,14.40
2018-05-10T02:51:51.454Z,14.40
2018-05-10T02:54:19.123Z,14.30
2018-05-10T02:56:46.693Z,14.30
2018-05-10T02:59:14.350Z,14.30
2018-05-10T03:01:41.889Z,14.20
2018-05-10T03:04:10.250Z,14.20
2018-05-10T03:06:37.829Z,14.10
2018-05-10T03:09:06.227Z,14.00
2018-05-10T03:11:33.921Z,14.00
2018-05-10T03:14:01.481Z,14.00
2018-05-10T03:16:29.047Z,14.00
2018-05-10T03:18:57.359Z,13.90
2018-05-10T03:21:25.712Z,13.90
2018-05-10T03:23:53.309Z,13.90
2018-05-10T03:26:21.699Z,13.80
2018-05-10T03:28:49.369Z,13.70
2018-05-10T03:31:16.924Z,13.70
2018-05-10T03:33:44.528Z,13.80
2018-05-10T03:36:12.190Z,13.70
2018-05-10T03:38:39.777Z,13.70
2018-05-10T03:41:07.389Z,13.70
2018-05-10T03:43:35.011Z,13.70
2018-05-10T03:46:02.664Z,13.70
2018-05-10T03:48:30.226Z,13.60
2018-05-10T03:50:59.353Z,13.50
2018-05-10T03:53:27.729Z,13.50
2018-05-10T03:55:56.066Z,13.50
2018-05-10T03:58:23.768Z,13.50
2018-05-10T04:00:52.124Z,13.60
2018-05-10T04:03:32.212Z,13.50
2018-05-10T04:09:12.226Z,13.60
2018-05-10T04:11:40.557Z,13.60
2018-05-10T04:14:08.928Z,13.50
2018-05-10T04:16:37.290Z,13.60
2018-05-10T04:19:05.683Z,13.60
2018-05-10T04:21:33.246Z,13.60
2018-05-10T04:24:01.675Z,13.60
2018-05-10T04:26:29.215Z,13.60
2018-05-10T04:28:56.967Z,13.70
2018-05-10T04:31:25.514Z,13.80
2018-05-10T04:33:53.204Z,13.70
2018-05-10T04:36:20.928Z,13.70
2018-05-10T04:38:48.482Z,13.80
2018-05-10T04:41:16.146Z,13.90
2018-05-10T04:43:43.695Z,14.00
2018-05-10T04:46:11.419Z,14.00
2018-05-10T04:48:39.749Z,14.10
2018-05-10T04:51:07.359Z,14.10
2018-05-10T04:53:35.042Z,14.20
2018-05-10T04:56:02.689Z,14.30
2018-05-10T04:58:30.997Z,14.40
2018-05-10T05:00:58.925Z,14.40
2018-05-10T05:03:26.484Z,14.40
2018-05-10T05:05:54.166Z,14.50
2018-05-10T05:08:21.825Z,14.70
2018-05-10T05:10:49.376Z,14.80
2018-05-10T05:13:17.044Z,14.90
2018-05-10T05:15:44.908Z,15.10
2018-05-10T05:18:13.263Z,15.50
2018-05-10T05:20:41.588Z,15.60
2018-05-10T05:23:09.177Z,15.50
2018-05-10T05:25:36.750Z,15.70
2018-05-10T05:28:05.153Z,15.90
2018-05-10T05:30:32.717Z,15.90
2018-05-10T05:33:00.400Z,16.00
2018-05-10T05:35:28.039Z,16.10
2018-05-10T05:37:56.327Z,16.40
2018-05-10T05:40:23.893Z,16.40
2018-05-10T05:42:51.448Z,16.50
2018-05-10T05:45:19.034Z,16.70
2018-05-10T05:47:46.589Z,16.80
2018-05-10T05:50:14.170Z,16.90
2018-05-10T05:52:41.787Z,17.00
2018-05-10T05:55:09.375Z,17.20
2018-05-10T05:57:36.947Z,17.30
2018-05-10T06:00:04.603Z,17.40
2018-05-10T06:02:32.178Z,17.60
2018-05-10T06:04:59.738Z,17.70
2018-05-10T06:07:27.601Z,17.80
2018-05-10T06:09:55.215Z,17.90
2018-05-10T06:12:22.765Z,18.00
2018-05-10T06:14:51.115Z,18.30
2018-05-10T06:17:19.477Z,18.50
2018-05-10T06:19:47.213Z,18.30
2018-05-10T06:22:14.752Z,18.80
2018-05-10T06:24:42.382Z,19.00
2018-05-10T06:27:10.288Z,19.40
2018-05-10T06:29:38.594Z,20.30
2018-05-10T06:32:06.216Z,20.30
2018-05-10T06:34:33.867Z,21.10
2018-05-10T06:37:01.415Z,22.00
2018-05-10T06:39:29.728Z,23.10
2018-05-10T06:41:57.296Z,23.10
2018-05-10T06:44:24.894Z,23.70
2018-05-10T06:46:52.494Z,23.90
2018-05-10T06:49:20.035Z,24.00
2018-05-10T06:51:48.379Z,24.20
2018-05-10T06:54:16.039Z,24.20
2018-05-10T06:56:43.570Z,24.20
2018-05-10T06:59:11.103Z,23.70
2018-05-10T07:01:38.692Z,23.60
2018-05-10T07:04:06.296Z,23.40
2018-05-10T07:06:33.864Z,23.10
2018-05-10T07:09:02.184Z,22.70
2018-05-10T07:11:29.760Z,22.70
2018-05-10T07:13:57.445Z,22.80
2018-05-10T07:16:24.991Z,23.00
2018-05-10T07:18:52.573Z,23.00
2018-05-10T07:21:20.283Z,23.00
2018-05-10T07:23:47.820Z,23.10
2018-05-10T07:26:15.484Z,23.00
2018-05-10T07:28:43.047Z,23.00
2018-05-10T07:31:10.644Z,23.00
2018-05-10T07:33:38.207Z,23.00
2018-05-10T07:36:05.769Z,23.10
2018-05-10T07:38:33.330Z,23.20
2018-05-10T07:41:00.902Z,23.20
2018-05-10T07:43:28.494Z,23.50
2018-05-10T07:45:56.862Z,24.30
2018-05-10T07:48:25.316Z,24.30
2018-05-10T07:50:52.946Z,24.30
2018-05-10T07:53:20.512Z,24.70
2018-05-10T07:55:48.088Z,25.30
2018-05-10T07:58:15.736Z,25.70
2018-05-10T08:00:43.332Z,26.20
2018-05-10T08:03:11.647Z,26.30
2018-05-10T08:05:39.372Z,26.30
2018-05-10T08:08:07.752Z,26.40
2018-05-10T08:10:35.406Z,26.30
2018-05-10T08:13:02.989Z,26.90
2018-05-10T08:15:31.311Z,28.40
2018-05-10T08:17:58.889Z,28.30
2018-05-10T08:20:26.579Z,29.70
2018-05-10T08:22:54.150Z,30.20
2018-05-10T08:25:22.528Z,29.90
2018-05-10T08:27:50.986Z,28.80
2018-05-10T08:30:18.655Z,28.80
2018-05-10T08:32:46.163Z,28.00
2018-05-10T08:35:14.443Z,27.80
2018-05-10T08:37:42.054Z,27.10
2018-05-10T08:40:09.703Z,26.90
2018-05-10T08:42:37.345Z,26.70
2018-05-10T08:45:05.091Z,26.80
2018-05-10T08:47:32.762Z,26.60
2018-05-10T08:50:00.455Z,26.50
2018-05-10T08:52:28.031Z,26.40
2018-05-10T08:57:48.575Z,26.30
2018-05-10T09:00:17.184Z,26.10
2018-05-10T09:02:44.789Z,26.10
2018-05-10T09:05:12.438Z,26.10
2018-05-10T09:07:40.098Z,26.30
2018-05-10T09:10:07.772Z,26.30
2018-05-10T09:12:35.385Z,26.40
2018-05-10T09:15:02.941Z,26.80
2018-05-10T09:17:31.384Z,26.90
2018-05-10T09:19:59.089Z,26.90
2018-05-10T09:22:26.677Z,27.00
2018-05-10T09:24:54.361Z,27.40
2018-05-10T09:27:22.048Z,27.60
2018-05-10T09:29:49.640Z,27.80
2018-05-10T09:32:17.335Z,27.80
2018-05-10T09:34:44.915Z,27.70
2018-05-10T09:37:13.313Z,28.50
2018-05-10T09:39:40.907Z,28.30
2018-05-10T09:42:08.443Z,28.80
2018-05-10T09:44:36.032Z,29.70
2018-05-10T09:47:03.683Z,30.90
2018-05-10T09:49:31.280Z,32.40
2018-05-10T09:51:58.827Z,33.30
2018-05-10T09:54:27.008Z,34.40
2018-05-10T09:56:54.612Z,34.10
2018-05-10T09:59:22.218Z,34.30
2018-05-10T10:01:50.558Z,34.90
2018-05-10T10:04:18.133Z,34.80
2018-05-10T10:06:45.713Z,35.00
2018-05-10T10:09:14.096Z,35.50
2018-05-10T10:11:41.739Z,35.50
2018-05-10T10:14:09.417Z,36.10
2018-05-10T10:16:37.040Z,36.00
2018-05-10T10:19:04.939Z,35.30
2018-05-10T10:21:33.632Z,34.80
2018-05-10T10:24:01.183Z,34.90
2018-05-10T10:26:28.743Z,35.30
2018-05-10T10:28:56.437Z,35.40
2018-05-10T10:31:24.023Z,34.90
2018-05-10T10:33:51.665Z,35.00
2018-05-10T10:36:19.273Z,35.50
2018-05-10T10:38:46.955Z,35.30
2018-05-10T10:41:14.661Z,35.60
2018-05-10T10:43:42.234Z,35.60
2018-05-10T10:46:10.683Z,34.60
2018-05-10T10:48:39.029Z,33.30
2018-05-10T10:51:06.775Z,33.30
2018-05-10T10:53:35.240Z,33.20
2018-05-10T10:56:02.878Z,33.20
2018-05-10T10:58:30.609Z,33.60
2018-05-10T11:00:58.269Z,34.00
2018-05-10T11:03:26.582Z,33.50
2018-05-10T11:05:54.203Z,33.50
2018-05-10T11:08:21.773Z,32.40
2018-05-10T11:10:50.130Z,30.20
2018-05-10T11:13:17.690Z,30.20
2018-05-10T11:15:45.286Z,29.40
2018-05-10T11:18:12.901Z,29.00
2018-05-10T11:20:41.436Z,28.30
2018-05-10T11:23:09.012Z,28.30
2018-05-10T11:25:36.554Z,27.90
2018-05-10T11:28:04.166Z,27.80
2018-05-10T11:30:31.761Z,27.60
2018-05-10T11:33:00.162Z,26.90
2018-05-10T11:35:27.675Z,26.80
2018-05-10T11:37:56.205Z,26.20
2018-05-10T11:40:23.840Z,26.10
2018-05-10T11:42:52.156Z,26.10
2018-05-10T11:45:19.836Z,26.10
2018-05-10T11:47:47.452Z,26.10
2018-05-10T11:50:14.990Z,26.10
2018-05-10T11:52:42.672Z,26.00
2018-05-10T11:55:10.243Z,26.00
2018-05-10T11:57:37.812Z,26.00
2018-05-10T12:00:05.525Z,26.10
2018-05-10T12:02:33.135Z,26.00
2018-05-10T12:05:00.702Z,25.80
2018-05-10T12:07:28.264Z,25.60
2018-05-10T12:09:57.337Z,25.40
2018-05-10T12:12:25.845Z,25.50
2018-05-10T12:14:53.438Z,25.50
2018-05-10T12:17:21.001Z,25.50
2018-05-10T12:19:49.472Z,25.20
2018-05-10T12:22:17.133Z,25.30
2018-05-10T12:24:44.747Z,25.10
2018-05-10T12:27:13.742Z,25.10
2018-05-10T12:29:41.445Z,25.00
2018-05-10T12:32:08.987Z,25.10
2018-05-10T12:34:36.843Z,25.10
2018-05-10T12:37:04.438Z,24.80
2018-05-10T12:39:31.999Z,24.90
2018-05-10T12:41:59.555Z,24.80
2018-05-10T12:44:27.172Z,24.60
2018-05-10T12:46:55.749Z,24.30
2018-05-10T12:49:23.396Z,24.20
2018-05-10T12:51:51.042Z,24.30
2018-05-10T12:54:19.713Z,24.00
2018-05-10T12:56:47.325Z,24.00
2018-05-10T12:59:16.224Z,24.00
2018-05-10T13:01:44.925Z,23.90
2018-05-10T13:04:12.618Z,23.90
2018-05-10T13:06:40.159Z,24.00
2018-05-10T13:09:08.532Z,24.20
2018-05-10T13:11:36.067Z,24.00
2018-05-10T13:14:03.672Z,24.30
2018-05-10T13:16:31.252Z,24.30
2018-05-10T13:18:58.806Z,24.30
2018-05-10T13:21:27.520Z,24.10
2018-05-10T13:23:55.062Z,23.90
2018-05-10T13:26:22.634Z,23.90
2018-05-10T13:28:50.277Z,23.80
2018-05-10T13:31:17.852Z,23.70
2018-05-10T13:33:45.429Z,23.60
2018-05-10T13:36:13.020Z,23.70
2018-05-10T13:38:40.603Z,23.70
2018-05-10T13:41:08.980Z,23.60
2018-05-10T13:43:36.616Z,23.60
2018-05-10T13:46:04.924Z,23.30
2018-05-10T13:48:32.534Z,23.30
2018-05-10T13:51:00.087Z,23.40
2018-05-10T13:53:27.679Z,23.40
2018-05-10T13:55:55.270Z,23.40
2018-05-10T13:58:23.605Z,23.40
2018-05-10T14:00:51.162Z,23.40
2018-05-10T14:03:19.616Z,23.40
2018-05-10T14:05:47.937Z,23.40
2018-05-10T14:08:15.592Z,23.30
2018-05-10T14:10:43.174Z,23.30
2018-05-10T14:13:11.414Z,23.20
2018-05-10T14:15:39.066Z,23.00
2018-05-10T14:18:06.747Z,22.90
2018-05-10T14:20:34.320Z,22.80
2018-05-10T14:23:02.681Z,22.60
2018-05-10T14:25:30.484Z,22.60
2018-05-10T14:27:58.092Z,22.70
2018-05-10T14:30:26.291Z,22.90
2018-05-10T14:32:53.917Z,23.00
2018-05-10T14:35:21.497Z,23.10
2018-05-10T14:37:49.847Z,23.30
2018-05-10T14:40:18.176Z,23.30
2018-05-10T14:42:46.526Z,23.30
2018-05-10T14:45:14.983Z,23.50
2018-05-10T14:47:43.353Z,23.40
2018-05-10T14:50:10.893Z,23.30
2018-05-10T14:52:38.499Z,23.30
2018-05-10T14:55:06.076Z,23.40
2018-05-10T14:57:33.771Z,23.60
2018-05-10T15:00:01.389Z,23.50
2018-05-10T15:02:29.269Z,23.50
2018-05-10T15:04:57.182Z,23.30
2018-05-10T15:07:25.584Z,23.20
2018-05-10T15:09:53.228Z,23.20
2018-05-10T15:12:20.762Z,23.20
2018-05-10T15:14:49.099Z,23.20
2018-05-10T15:17:16.658Z,23.20
2018-05-10T15:19:44.225Z,23.20
2018-05-10T15:22:11.766Z,23.10
2018-05-10T15:24:39.301Z,23.00
2018-05-10T15:27:06.913Z,23.10
2018-05-10T15:29:34.526Z,23.00
2018-05-10T15:32:02.111Z,23.00
2018-05-10T15:34:29.790Z,22.80
2018-05-10T15:36:58.309Z,22.70
2018-05-10T15:39:26.530Z,22.60
2018-05-10T15:41:54.180Z,22.50
2018-05-10T15:44:21.725Z,22.50
2018-05-10T15:46:49.397Z,22.50
2018-05-10T15:49:17.172Z,22.20
2018-05-10T15:51:45.106Z,22.20
2018-05-10T15:54:12.802Z,22.00
2018-05-10T15:56:40.585Z,22.00
2018-05-10T15:59:08.201Z,22.00
2018-05-10T16:01:35.977Z,21.90
2018-05-10T16:04:04.331Z,21.90
2018-05-10T16:06:32.668Z,22.10
2018-05-10T16:09:01.417Z,22.00
2018-05-10T16:11:29.078Z,22.00
2018-05-10T16:13:56.724Z,22.00
2018-05-10T16:16:24.264Z,22.20
2018-05-10T16:18:51.813Z,22.30
2018-05-10T16:21:19.587Z,22.40
2018-05-10T16:23:47.158Z,22.40
2018-05-10T16:26:14.800Z,22.20
2018-05-10T16:28:42.512Z,22.20
2018-05-10T16:31:10.090Z,22.10
2018-05-10T16:33:37.750Z,21.90
2018-05-10T16:36:05.312Z,21.90
2018-05-10T16:38:33.646Z,21.50
2018-05-10T16:41:02.061Z,21.50
2018-05-10T16:43:29.619Z,21.50
2018-05-10T16:45:57.237Z,21.30
2018-05-10T16:48:24.826Z,21.20
2018-05-10T16:50:52.411Z,21.10
2018-05-10T16:53:20.100Z,21.00
2018-05-10T16:55:47.612Z,20.70
2018-05-10T16:58:15.148Z,20.60
2018-05-10T17:00:42.805Z,20.50
2018-05-10T17:03:10.355Z,20.50
2018-05-10T17:05:37.894Z,20.50
2018-05-10T17:08:05.470Z,20.50
2018-05-10T17:10:33.105Z,20.40
2018-05-10T17:13:01.440Z,20.40
2018-05-10T17:15:29.162Z,20.40
2018-05-10T17:17:56.816Z,20.40
2018-05-10T17:20:24.433Z,20.60
2018-05-10T17:22:52.024Z,20.30
2018-05-10T17:25:19.575Z,20.20
2018-05-10T17:27:48.318Z,20.20
2018-05-10T17:30:15.892Z,20.10
2018-05-10T17:32:43.472Z,20.20
2018-05-10T17:35:11.069Z,20.00
2018-05-10T17:37:38.616Z,20.00
2018-05-10T17:40:06.239Z,20.00
2018-05-10T17:42:33.807Z,19.80
2018-05-10T17:45:01.369Z,19.80
2018-05-10T17:47:28.941Z,19.70
2018-05-10T17:49:56.525Z,19.70
2018-05-10T17:52:24.111Z,19.60
2018-05-10T17:54:51.698Z,19.50
2018-05-10T17:57:20.050Z,19.50
2018-05-10T17:59:47.612Z,19.50
2018-05-10T18:02:16.801Z,19.40
2018-05-10T18:04:44.391Z,19.40
2018-05-10T18:07:12.096Z,19.30
2018-05-10T18:09:39.734Z,19.30
2018-05-10T18:12:07.287Z,19.30
2018-05-10T18:14:34.833Z,19.30
2018-05-10T18:17:02.522Z,19.30
2018-05-10T18:19:30.066Z,19.20
2018-05-10T18:21:57.702Z,19.20
2018-05-10T18:24:25.374Z,19.10
2018-05-10T18:26:53.395Z,19.10
2018-05-10T18:29:21.036Z,19.10
2018-05-10T18:31:48.619Z,19.00
2018-05-10T18:34:16.201Z,19.00
2018-05-10T18:36:43.772Z,18.90
2018-05-10T18:39:12.276Z,18.80
2018-05-10T18:41:39.866Z,18.80
2018-05-10T18:44:07.782Z,18.70
2018-05-10T18:46:35.495Z,18.70
2018-05-10T18:49:03.071Z,18.70
2018-05-10T18:51:31.433Z,18.70
2018-05-10T18:53:59.733Z,18.70
2018-05-10T18:56:27.283Z,18.60
2018-05-10T18:58:54.881Z,18.60
2018-05-10T19:01:23.329Z,18.30
2018-05-10T19:03:50.905Z,18.30
2018-05-10T19:06:18.600Z,18.30
2018-05-10T19:08:46.169Z,18.20
2018-05-10T19:11:14.506Z,17.90
2018-05-10T19:13:41.435Z,17.90
2018-05-10T19:19:03.082Z,17.70
2018-05-10T19:21:31.501Z,17.40
2018-05-10T19:23:59.258Z,17.30
2018-05-10T19:26:28.470Z,17.00
2018-05-10T19:28:57.318Z,17.20
2018-05-10T19:31:24.860Z,17.10
2018-05-10T19:33:52.424Z,16.90
2018-05-10T19:36:20.776Z,16.50
2018-05-10T19:38:48.329Z,16.50
2018-05-10T19:41:16.679Z,16.00
2018-05-10T19:43:44.223Z,16.00
2018-05-10T19:46:12.633Z,15.40
2018-05-10T19:48:40.194Z,15.60
2018-05-10T19:51:08.307Z,15.40
2018-05-10T19:53:35.913Z,15.20
2018-05-10T19:56:03.543Z,15.10
2018-05-10T19:58:31.122Z,15.10
2018-05-10T20:00:58.668Z,15.10
2018-05-10T20:03:28.115Z,15.10
2018-05-10T20:05:55.650Z,15.10
2018-05-10T20:08:23.234Z,15.00
2018-05-10T20:10:50.825Z,14.80
2018-05-10T20:13:18.401Z,14.70
2018-05-10T20:15:46.751Z,14.40
2018-05-10T20:18:14.298Z,14.30
2018-05-10T20:20:41.886Z,14.30
2018-05-10T20:23:10.227Z,14.00
2018-05-10T20:25:38.052Z,13.90
2018-05-10T20:28:05.673Z,13.80
2018-05-10T20:30:33.239Z,13.70
2018-05-10T20:33:00.834Z,13.60
2018-05-10T20:35:28.401Z,13.60
2018-05-10T20:37:55.977Z,13.60
2018-05-10T20:40:24.323Z,13.50
2018-05-10T20:42:51.880Z,13.50
2018-05-10T20:45:19.458Z,13.50
2018-05-10T20:47:47.043Z,13.40
2018-05-10T20:50:14.609Z,13.40
2018-05-10T20:52:42.178Z,13.50
2018-05-10T20:55:09.782Z,13.50
2018-05-10T20:57:37.374Z,13.60
2018-05-10T21:00:05.059Z,13.60
2018-05-10T21:02:32.591Z,13.60
2018-05-10T21:05:00.940Z,13.60
2018-05-10T21:07:28.493Z,13.60
2018-05-10T21:09:56.673Z,13.60
2018-05-10T21:12:35.862Z,13.70
2018-05-10T21:15:03.423Z,13.70
2018-05-10T21:17:31.027Z,13.80
2018-05-10T21:19:58.569Z,13.70
2018-05-10T21:22:26.134Z,13.70
2018-05-10T21:24:53.723Z,13.70
2018-05-10T21:27:22.080Z,13.80
2018-05-10T21:29:50.108Z,13.80
2018-05-10T21:32:17.689Z,13.90
2018-05-10T21:34:45.231Z,14.00
2018-05-10T21:37:12.795Z,13.90
2018-05-10T21:39:41.113Z,13.70
2018-05-10T21:42:09.479Z,13.70
2018-05-10T21:44:37.061Z,13.70
2018-05-10T21:47:05.413Z,13.80
2018-05-10T21:49:44.665Z,13.80
2018-05-10T21:52:12.238Z,13.90
2018-05-10T21:54:40.724Z,13.90
2018-05-10T21:57:08.474Z,13.70
2018-05-10T21:59:36.017Z,13.80
2018-05-10T22:02:04.335Z,13.60
2018-05-10T22:04:32.679Z,13.60
2018-05-10T22:07:00.232Z,13.60
2018-05-10T22:09:27.837Z,13.70
2018-05-10T22:11:56.169Z,13.50
2018-05-10T22:14:24.507Z,13.50
2018-05-10T22:16:52.074Z,13.40
2018-05-10T22:19:20.413Z,13.30
2018-05-10T22:21:47.975Z,13.30
2018-05-10T22:24:16.348Z,13.20
2018-05-10T22:26:43.903Z,13.20
2018-05-10T22:29:12.306Z,13.40
2018-05-10T22:31:40.609Z,13.20
2018-05-10T22:34:09.023Z,13.10
2018-05-10T22:36:37.350Z,13.20
2018-05-10T22:39:05.698Z,13.20
2018-05-10T22:41:33.261Z,13.10
2018-05-10T22:44:01.578Z,13.00
2018-05-10T22:46:29.927Z,13.20
2018-05-10T22:48:58.238Z,13.20
2018-05-10T22:51:26.499Z,13.20
2018-05-10T22:53:54.033Z,13.10
2018-05-10T22:56:22.348Z,13.20
2018-05-10T22:58:50.695Z,13.10
2018-05-10T23:01:18.278Z,13.10
2018-05-10T23:03:45.950Z,13.00
2018-05-10T23:06:13.507Z,13.00
2018-05-10T23:08:41.890Z,12.90
2018-05-10T23:11:10.325Z,12.80
2018-05-10T23:13:38.673Z,12.80
2018-05-10T23:16:07.038Z,12.60
2018-05-10T23:18:34.651Z,12.60
2018-05-10T23:21:02.293Z,12.60
2018-05-10T23:23:29.877Z,12.60
2018-05-10T23:25:57.451Z,12.50
2018-05-10T23:28:25.014Z,12.50
2018-05-10T23:30:53.350Z,12.50
2018-05-10T23:33:20.924Z,12.50
2018-05-10T23:35:49.244Z,12.40
2018-05-10T23:38:16.813Z,12.40
2018-05-10T23:40:44.351Z,12.30
2018-05-10T23:43:11.943Z,12.40
2018-05-10T23:45:39.538Z,12.30
2018-05-10T23:48:08.128Z,12.30
2018-05-10T23:50:36.511Z,12.20
2018-05-10T23:53:04.100Z,12.20
2018-05-10T23:55:31.711Z,12.30
2018-05-10T23:58:00.076Z,12.30
